sensor_id;sensor_type;location;lat;lon;timestamp;P1;durP1;ratioP1;P2;durP2;ratioP2
63945;SDS011;50122;56.330;43.838;2022-09-09T00:01:58;4.78;;;2.58;;
63945;SDS011;50122;56.330;43.838;2022-09-09T00:04:29;6.43;;;3.00;;
63945;SDS011;50122;56.330;43.838;2022-09-09T00:09:59;5.22;;;2.97;;
63945;SDS011;50122;56.330;43.838;2022-09-09T00:15:20;4.35;;;2.58;;
63945;SDS011;50122;56.330;43.838;2022-09-09T00:20:47;4.03;;;2.95;;
63945;SDS011;50122;56.330;43.838;2022-09-09T00:23:28;4.95;;;2.85;;
63945;SDS011;50122;56.330;43.838;2022-09-09T00:26:09;3.83;;;2.50;;
63945;SDS011;50122;56.330;43.838;2022-09-09T00:31:36;4.53;;;3.10;;
63945;SDS011;50122;56.330;43.838;2022-09-09T00:36:39;4.03;;;2.70;;
63945;SDS011;50122;56.330;43.838;2022-09-09T00:39:23;4.40;;;2.55;;
63945;SDS011;50122;56.330;43.838;2022-09-09T00:44:58;3.50;;;2.70;;
63945;SDS011;50122;56.330;43.838;2022-09-09T00:58:35;3.90;;;2.60;;
63945;SDS011;50122;56.330;43.838;2022-09-09T01:01:10;4.35;;;2.67;;
63945;SDS011;50122;56.330;43.838;2022-09-09T01:03:42;4.20;;;2.45;;
63945;SDS011;50122;56.330;43.838;2022-09-09T01:06:29;2.92;;;2.30;;
63945;SDS011;50122;56.330;43.838;2022-09-09T01:09:11;5.10;;;2.50;;
63945;SDS011;50122;56.330;43.838;2022-09-09T01:11:59;3.17;;;2.33;;
63945;SDS011;50122;56.330;43.838;2022-09-09T01:19:55;5.35;;;2.60;;
63945;SDS011;50122;56.330;43.838;2022-09-09T01:28:37;4.93;;;2.90;;
63945;SDS011;50122;56.330;43.838;2022-09-09T01:31:06;2.85;;;2.28;;
63945;SDS011;50122;56.330;43.838;2022-09-09T01:33:37;3.83;;;2.50;;
63945;SDS011;50122;56.330;43.838;2022-09-09T01:36:21;3.55;;;2.30;;
63945;SDS011;50122;56.330;43.838;2022-09-09T01:38:56;4.10;;;2.47;;
63945;SDS011;50122;56.330;43.838;2022-09-09T01:41:23;6.18;;;2.63;;
63945;SDS011;50122;56.330;43.838;2022-09-09T01:43:50;4.78;;;2.33;;
63945;SDS011;50122;56.330;43.838;2022-09-09T01:46:21;3.75;;;2.40;;
63945;SDS011;50122;56.330;43.838;2022-09-09T01:48:50;4.50;;;2.80;;
63945;SDS011;50122;56.330;43.838;2022-09-09T01:51:18;3.08;;;2.20;;
63945;SDS011;50122;56.330;43.838;2022-09-09T01:53:45;4.60;;;2.95;;
63945;SDS011;50122;56.330;43.838;2022-09-09T02:01:37;6.97;;;2.75;;
63945;SDS011;50122;56.330;43.838;2022-09-09T02:04:22;5.05;;;2.45;;
63945;SDS011;50122;56.330;43.838;2022-09-09T02:10:01;3.80;;;2.50;;
63945;SDS011;50122;56.330;43.838;2022-09-09T02:12:38;5.25;;;2.65;;
63945;SDS011;50122;56.330;43.838;2022-09-09T02:15:16;5.18;;;2.35;;
63945;SDS011;50122;56.330;43.838;2022-09-09T02:17:50;3.70;;;2.47;;
63945;SDS011;50122;56.330;43.838;2022-09-09T02:20:18;4.43;;;2.85;;
63945;SDS011;50122;56.330;43.838;2022-09-09T02:22:47;4.13;;;2.53;;
63945;SDS011;50122;56.330;43.838;2022-09-09T02:25:20;5.07;;;2.95;;
63945;SDS011;50122;56.330;43.838;2022-09-09T02:27:50;5.40;;;2.70;;
63945;SDS011;50122;56.330;43.838;2022-09-09T02:30:20;4.18;;;2.95;;
63945;SDS011;50122;56.330;43.838;2022-09-09T02:32:48;6.57;;;2.95;;
63945;SDS011;50122;56.330;43.838;2022-09-09T02:35:22;4.53;;;3.08;;
63945;SDS011;50122;56.330;43.838;2022-09-09T02:37:51;7.40;;;3.17;;
63945;SDS011;50122;56.330;43.838;2022-09-09T02:40:21;4.00;;;2.67;;
63945;SDS011;50122;56.330;43.838;2022-09-09T02:42:49;4.93;;;2.65;;
63945;SDS011;50122;56.330;43.838;2022-09-09T02:45:19;5.00;;;2.72;;
63945;SDS011;50122;56.330;43.838;2022-09-09T02:48:06;4.53;;;2.87;;
63945;SDS011;50122;56.330;43.838;2022-09-09T02:50:54;4.95;;;3.20;;
63945;SDS011;50122;56.330;43.838;2022-09-09T02:56:13;5.07;;;3.10;;
63945;SDS011;50122;56.330;43.838;2022-09-09T02:58:43;4.72;;;3.40;;
63945;SDS011;50122;56.330;43.838;2022-09-09T03:01:11;4.32;;;3.05;;
63945;SDS011;50122;56.330;43.838;2022-09-09T03:03:38;4.75;;;3.22;;
63945;SDS011;50122;56.330;43.838;2022-09-09T03:06:06;6.38;;;3.30;;
63945;SDS011;50122;56.330;43.838;2022-09-09T03:08:33;4.45;;;2.97;;
63945;SDS011;50122;56.330;43.838;2022-09-09T03:10:59;4.95;;;3.40;;
63945;SDS011;50122;56.330;43.838;2022-09-09T03:13:29;4.65;;;3.30;;
63945;SDS011;50122;56.330;43.838;2022-09-09T03:15:56;9.65;;;5.72;;
63945;SDS011;50122;56.330;43.838;2022-09-09T03:18:22;6.55;;;4.50;;
63945;SDS011;50122;56.330;43.838;2022-09-09T03:20:49;4.93;;;2.83;;
63945;SDS011;50122;56.330;43.838;2022-09-09T03:23:17;5.32;;;2.92;;
63945;SDS011;50122;56.330;43.838;2022-09-09T03:25:48;5.20;;;2.67;;
63945;SDS011;50122;56.330;43.838;2022-09-09T03:28:18;4.25;;;2.60;;
63945;SDS011;50122;56.330;43.838;2022-09-09T03:30:45;4.63;;;2.53;;
63945;SDS011;50122;56.330;43.838;2022-09-09T03:33:11;5.07;;;2.85;;
63945;SDS011;50122;56.330;43.838;2022-09-09T03:35:38;4.70;;;2.60;;
63945;SDS011;50122;56.330;43.838;2022-09-09T03:38:05;4.75;;;2.60;;
63945;SDS011;50122;56.330;43.838;2022-09-09T03:40:32;4.57;;;2.75;;
63945;SDS011;50122;56.330;43.838;2022-09-09T03:42:59;4.13;;;2.35;;
63945;SDS011;50122;56.330;43.838;2022-09-09T03:45:25;4.03;;;2.40;;
63945;SDS011;50122;56.330;43.838;2022-09-09T16:39:58;17.33;;;6.60;;
63945;SDS011;50122;56.330;43.838;2022-09-09T16:42:26;12.80;;;6.03;;
63945;SDS011;50122;56.330;43.838;2022-09-09T16:44:53;14.32;;;6.22;;
63945;SDS011;50122;56.330;43.838;2022-09-09T16:47:20;11.13;;;5.22;;
63945;SDS011;50122;56.330;43.838;2022-09-09T16:49:47;12.50;;;6.32;;
63945;SDS011;50122;56.330;43.838;2022-09-09T16:52:15;17.90;;;7.85;;
63945;SDS011;50122;56.330;43.838;2022-09-09T16:54:45;17.27;;;8.40;;
63945;SDS011;50122;56.330;43.838;2022-09-09T16:57:12;26.58;;;13.20;;
63945;SDS011;50122;56.330;43.838;2022-09-09T16:59:38;20.27;;;11.50;;
63945;SDS011;50122;56.330;43.838;2022-09-09T17:02:05;11.95;;;5.82;;
63945;SDS011;50122;56.330;43.838;2022-09-09T17:04:34;12.27;;;4.93;;
63945;SDS011;50122;56.330;43.838;2022-09-09T17:07:00;7.22;;;4.70;;
63945;SDS011;50122;56.330;43.838;2022-09-09T17:09:28;7.72;;;4.10;;
63945;SDS011;50122;56.330;43.838;2022-09-09T17:11:55;8.10;;;4.18;;
63945;SDS011;50122;56.330;43.838;2022-09-09T17:14:22;7.50;;;3.80;;
63945;SDS011;50122;56.330;43.838;2022-09-09T17:16:49;6.75;;;3.60;;
63945;SDS011;50122;56.330;43.838;2022-09-09T17:19:16;6.25;;;3.47;;
63945;SDS011;50122;56.330;43.838;2022-09-09T17:21:43;6.32;;;3.50;;
63945;SDS011;50122;56.330;43.838;2022-09-09T17:24:33;8.20;;;4.00;;
63945;SDS011;50122;56.330;43.838;2022-09-09T17:27:00;8.02;;;4.50;;
63945;SDS011;50122;56.330;43.838;2022-09-09T17:29:28;7.82;;;4.00;;
63945;SDS011;50122;56.330;43.838;2022-09-09T17:31:55;9.25;;;3.70;;
63945;SDS011;50122;56.330;43.838;2022-09-09T17:34:22;9.45;;;3.88;;
63945;SDS011;50122;56.330;43.838;2022-09-09T17:36:50;6.93;;;3.80;;
63945;SDS011;50122;56.330;43.838;2022-09-09T17:39:16;9.43;;;3.95;;
63945;SDS011;50122;56.330;43.838;2022-09-09T17:41:43;6.68;;;3.58;;
63945;SDS011;50122;56.330;43.838;2022-09-09T17:44:10;7.75;;;3.38;;
63945;SDS011;50122;56.330;43.838;2022-09-09T17:46:38;6.80;;;3.72;;
63945;SDS011;50122;56.330;43.838;2022-09-09T17:49:19;7.88;;;4.22;;
63945;SDS011;50122;56.330;43.838;2022-09-09T17:51:46;10.25;;;4.82;;
63945;SDS011;50122;56.330;43.838;2022-09-09T17:54:17;8.65;;;4.03;;
63945;SDS011;50122;56.330;43.838;2022-09-09T17:56:45;11.45;;;4.93;;
63945;SDS011;50122;56.330;43.838;2022-09-09T17:59:13;14.48;;;6.70;;
63945;SDS011;50122;56.330;43.838;2022-09-09T18:01:42;17.80;;;7.97;;
63945;SDS011;50122;56.330;43.838;2022-09-09T18:04:11;14.70;;;7.95;;
63945;SDS011;50122;56.330;43.838;2022-09-09T18:06:43;16.08;;;7.28;;
63945;SDS011;50122;56.330;43.838;2022-09-09T18:09:20;16.00;;;6.68;;
63945;SDS011;50122;56.330;43.838;2022-09-09T18:11:49;12.45;;;6.65;;
63945;SDS011;50122;56.330;43.838;2022-09-09T18:14:22;15.70;;;6.43;;
63945;SDS011;50122;56.330;43.838;2022-09-09T18:16:51;13.85;;;6.70;;
63945;SDS011;50122;56.330;43.838;2022-09-09T18:19:20;13.68;;;7.30;;
63945;SDS011;50122;56.330;43.838;2022-09-09T18:21:48;13.15;;;6.50;;
63945;SDS011;50122;56.330;43.838;2022-09-09T18:24:16;11.63;;;5.25;;
63945;SDS011;50122;56.330;43.838;2022-09-09T18:26:44;8.50;;;4.78;;
63945;SDS011;50122;56.330;43.838;2022-09-09T18:29:12;12.43;;;4.00;;
63945;SDS011;50122;56.330;43.838;2022-09-09T18:31:41;11.18;;;4.68;;
63945;SDS011;50122;56.330;43.838;2022-09-09T18:34:09;11.63;;;5.35;;
63945;SDS011;50122;56.330;43.838;2022-09-09T18:36:46;11.80;;;4.80;;
63945;SDS011;50122;56.330;43.838;2022-09-09T18:39:16;11.35;;;5.50;;
63945;SDS011;50122;56.330;43.838;2022-09-09T18:41:47;13.18;;;6.40;;
63945;SDS011;50122;56.330;43.838;2022-09-09T18:44:18;14.05;;;7.40;;
63945;SDS011;50122;56.330;43.838;2022-09-09T18:46:47;13.32;;;7.18;;
63945;SDS011;50122;56.330;43.838;2022-09-09T18:49:15;18.85;;;8.38;;
63945;SDS011;50122;56.330;43.838;2022-09-09T18:51:42;19.33;;;10.60;;
63945;SDS011;50122;56.330;43.838;2022-09-09T18:54:11;18.35;;;10.07;;
63945;SDS011;50122;56.330;43.838;2022-09-09T18:56:39;14.18;;;9.20;;
63945;SDS011;50122;56.330;43.838;2022-09-09T18:59:07;14.05;;;7.13;;
63945;SDS011;50122;56.330;43.838;2022-09-09T19:01:45;14.80;;;7.47;;
63945;SDS011;50122;56.330;43.838;2022-09-09T19:04:13;11.85;;;7.22;;
63945;SDS011;50122;56.330;43.838;2022-09-09T19:06:41;13.15;;;7.65;;
63945;SDS011;50122;56.330;43.838;2022-09-09T19:09:15;9.55;;;5.32;;
63945;SDS011;50122;56.330;43.838;2022-09-09T19:11:46;7.90;;;3.90;;
63945;SDS011;50122;56.330;43.838;2022-09-09T19:14:14;6.40;;;3.35;;
63945;SDS011;50122;56.330;43.838;2022-09-09T19:16:43;5.75;;;2.88;;
63945;SDS011;50122;56.330;43.838;2022-09-09T19:19:11;6.30;;;2.40;;
63945;SDS011;50122;56.330;43.838;2022-09-09T19:21:43;6.72;;;2.28;;
63945;SDS011;50122;56.330;43.838;2022-09-09T19:24:12;4.88;;;2.17;;
63945;SDS011;50122;56.330;43.838;2022-09-09T19:26:45;4.25;;;2.20;;
63945;SDS011;50122;56.330;43.838;2022-09-09T19:29:18;2.83;;;1.60;;
63945;SDS011;50122;56.330;43.838;2022-09-09T19:32:12;4.97;;;2.00;;
63945;SDS011;50122;56.330;43.838;2022-09-09T19:35:00;4.32;;;1.90;;
63945;SDS011;50122;56.330;43.838;2022-09-09T19:37:27;3.28;;;1.85;;
63945;SDS011;50122;56.330;43.838;2022-09-09T19:39:54;2.75;;;1.52;;
63945;SDS011;50122;56.330;43.838;2022-09-09T19:42:22;3.20;;;1.50;;
63945;SDS011;50122;56.330;43.838;2022-09-09T19:44:48;2.85;;;1.70;;
63945;SDS011;50122;56.330;43.838;2022-09-09T19:47:17;3.95;;;1.85;;
63945;SDS011;50122;56.330;43.838;2022-09-09T19:49:43;3.47;;;1.60;;
63945;SDS011;50122;56.330;43.838;2022-09-09T19:52:12;4.20;;;1.90;;
63945;SDS011;50122;56.330;43.838;2022-09-09T19:54:39;5.30;;;2.30;;
63945;SDS011;50122;56.330;43.838;2022-09-09T19:57:06;3.58;;;1.70;;
63945;SDS011;50122;56.330;43.838;2022-09-09T19:59:33;3.30;;;1.65;;
63945;SDS011;50122;56.330;43.838;2022-09-09T20:02:01;3.15;;;1.60;;
63945;SDS011;50122;56.330;43.838;2022-09-09T20:04:27;4.22;;;1.75;;
63945;SDS011;50122;56.330;43.838;2022-09-09T20:06:54;4.13;;;1.52;;
63945;SDS011;50122;56.330;43.838;2022-09-09T20:09:22;3.80;;;1.70;;
63945;SDS011;50122;56.330;43.838;2022-09-09T20:11:52;5.43;;;2.00;;
63945;SDS011;50122;56.330;43.838;2022-09-09T20:14:18;3.40;;;1.70;;
63945;SDS011;50122;56.330;43.838;2022-09-09T20:16:46;3.47;;;2.03;;
63945;SDS011;50122;56.330;43.838;2022-09-09T20:19:13;5.40;;;2.22;;
63945;SDS011;50122;56.330;43.838;2022-09-09T20:21:42;2.92;;;1.70;;
63945;SDS011;50122;56.330;43.838;2022-09-09T20:24:18;3.80;;;2.10;;
63945;SDS011;50122;56.330;43.838;2022-09-09T20:26:48;3.10;;;1.92;;
63945;SDS011;50122;56.330;43.838;2022-09-09T20:29:16;4.45;;;1.80;;
63945;SDS011;50122;56.330;43.838;2022-09-09T20:31:45;4.50;;;1.80;;
63945;SDS011;50122;56.330;43.838;2022-09-09T20:34:13;4.03;;;2.00;;
63945;SDS011;50122;56.330;43.838;2022-09-09T20:36:41;3.78;;;1.92;;
63945;SDS011;50122;56.330;43.838;2022-09-09T20:41:38;5.28;;;2.10;;
63945;SDS011;50122;56.330;43.838;2022-09-09T20:44:06;3.47;;;2.13;;
63945;SDS011;50122;56.330;43.838;2022-09-09T20:46:39;5.75;;;2.05;;
63945;SDS011;50122;56.330;43.838;2022-09-09T20:49:08;4.47;;;2.20;;
63945;SDS011;50122;56.330;43.838;2022-09-09T20:51:36;5.15;;;2.03;;
63945;SDS011;50122;56.330;43.838;2022-09-09T20:56:33;3.88;;;2.20;;
63945;SDS011;50122;56.330;43.838;2022-09-09T20:59:03;3.28;;;1.90;;
63945;SDS011;50122;56.330;43.838;2022-09-09T21:01:31;3.70;;;1.60;;
63945;SDS011;50122;56.330;43.838;2022-09-09T21:03:58;3.92;;;1.80;;
63945;SDS011;50122;56.330;43.838;2022-09-09T21:06:25;3.15;;;2.10;;
63945;SDS011;50122;56.330;43.838;2022-09-09T21:08:52;4.03;;;1.70;;
63945;SDS011;50122;56.330;43.838;2022-09-09T21:11:19;2.53;;;1.70;;
63945;SDS011;50122;56.330;43.838;2022-09-09T21:13:46;3.20;;;1.73;;
63945;SDS011;50122;56.330;43.838;2022-09-09T21:16:14;3.30;;;1.50;;
63945;SDS011;50122;56.330;43.838;2022-09-09T21:18:44;2.78;;;1.42;;
63945;SDS011;50122;56.330;43.838;2022-09-09T21:21:11;3.10;;;1.63;;
63945;SDS011;50122;56.330;43.838;2022-09-09T21:23:38;2.55;;;1.50;;
63945;SDS011;50122;56.330;43.838;2022-09-09T21:26:05;3.63;;;1.70;;
63945;SDS011;50122;56.330;43.838;2022-09-09T21:28:33;2.90;;;1.70;;
63945;SDS011;50122;56.330;43.838;2022-09-09T21:31:02;3.42;;;1.77;;
63945;SDS011;50122;56.330;43.838;2022-09-09T21:33:29;2.13;;;1.40;;
63945;SDS011;50122;56.330;43.838;2022-09-09T21:36:03;3.65;;;1.67;;
63945;SDS011;50122;56.330;43.838;2022-09-09T21:38:33;1.75;;;1.30;;
63945;SDS011;50122;56.330;43.838;2022-09-09T21:41:03;4.13;;;1.50;;
63945;SDS011;50122;56.330;43.838;2022-09-09T21:43:31;4.18;;;1.80;;
63945;SDS011;50122;56.330;43.838;2022-09-09T21:45:58;3.53;;;1.98;;
63945;SDS011;50122;56.330;43.838;2022-09-09T21:48:29;2.95;;;1.60;;
63945;SDS011;50122;56.330;43.838;2022-09-09T21:51:00;2.85;;;1.70;;
63945;SDS011;50122;56.330;43.838;2022-09-09T21:53:29;2.67;;;1.85;;
63945;SDS011;50122;56.330;43.838;2022-09-09T21:56:01;3.13;;;2.00;;
63945;SDS011;50122;56.330;43.838;2022-09-09T21:58:32;3.95;;;2.10;;
63945;SDS011;50122;56.330;43.838;2022-09-09T22:01:00;4.07;;;2.13;;
63945;SDS011;50122;56.330;43.838;2022-09-09T22:03:27;4.07;;;2.20;;
63945;SDS011;50122;56.330;43.838;2022-09-09T22:05:54;3.95;;;2.20;;
63945;SDS011;50122;56.330;43.838;2022-09-09T22:08:20;4.05;;;2.10;;
63945;SDS011;50122;56.330;43.838;2022-09-09T22:10:47;5.07;;;1.90;;
63945;SDS011;50122;56.330;43.838;2022-09-09T22:13:14;4.57;;;1.70;;
63945;SDS011;50122;56.330;43.838;2022-09-09T22:15:43;2.67;;;1.80;;
63945;SDS011;50122;56.330;43.838;2022-09-09T22:18:11;3.17;;;1.80;;
63945;SDS011;50122;56.330;43.838;2022-09-09T22:20:42;3.50;;;1.75;;
63945;SDS011;50122;56.330;43.838;2022-09-09T22:23:11;2.10;;;1.67;;
63945;SDS011;50122;56.330;43.838;2022-09-09T22:25:38;3.10;;;1.77;;
63945;SDS011;50122;56.330;43.838;2022-09-09T22:28:07;3.45;;;1.73;;
63945;SDS011;50122;56.330;43.838;2022-09-09T22:30:34;3.17;;;1.65;;
63945;SDS011;50122;56.330;43.838;2022-09-09T22:33:01;8.00;;;2.15;;
63945;SDS011;50122;56.330;43.838;2022-09-09T22:35:28;3.78;;;1.80;;
63945;SDS011;50122;56.330;43.838;2022-09-09T22:37:55;2.90;;;1.90;;
63945;SDS011;50122;56.330;43.838;2022-09-09T22:40:24;4.13;;;1.98;;
63945;SDS011;50122;56.330;43.838;2022-09-09T22:42:51;4.40;;;2.03;;
63945;SDS011;50122;56.330;43.838;2022-09-09T22:45:18;5.95;;;1.90;;
63945;SDS011;50122;56.330;43.838;2022-09-09T22:47:46;6.57;;;2.13;;
63945;SDS011;50122;56.330;43.838;2022-09-09T22:50:13;4.47;;;1.90;;
63945;SDS011;50122;56.330;43.838;2022-09-09T22:52:40;3.05;;;1.50;;
63945;SDS011;50122;56.330;43.838;2022-09-09T22:55:07;4.40;;;1.95;;
63945;SDS011;50122;56.330;43.838;2022-09-09T22:57:35;10.45;;;1.92;;
63945;SDS011;50122;56.330;43.838;2022-09-09T23:00:03;4.35;;;1.90;;
63945;SDS011;50122;56.330;43.838;2022-09-09T23:02:34;3.70;;;1.85;;
63945;SDS011;50122;56.330;43.838;2022-09-09T23:05:06;5.50;;;2.00;;
63945;SDS011;50122;56.330;43.838;2022-09-09T23:07:34;2.65;;;1.60;;
63945;SDS011;50122;56.330;43.838;2022-09-09T23:10:02;3.58;;;1.80;;
63945;SDS011;50122;56.330;43.838;2022-09-09T23:12:30;4.70;;;1.80;;
63945;SDS011;50122;56.330;43.838;2022-09-09T23:14:57;5.97;;;1.90;;
63945;SDS011;50122;56.330;43.838;2022-09-09T23:17:24;4.38;;;1.73;;
63945;SDS011;50122;56.330;43.838;2022-09-09T23:19:51;4.68;;;1.80;;
63945;SDS011;50122;56.330;43.838;2022-09-09T23:22:19;3.10;;;1.73;;
63945;SDS011;50122;56.330;43.838;2022-09-09T23:24:46;4.05;;;2.00;;
63945;SDS011;50122;56.330;43.838;2022-09-09T23:27:16;4.05;;;1.80;;
63945;SDS011;50122;56.330;43.838;2022-09-09T23:29:42;2.38;;;1.67;;
63945;SDS011;50122;56.330;43.838;2022-09-09T23:32:09;4.10;;;1.70;;
63945;SDS011;50122;56.330;43.838;2022-09-09T23:34:38;4.32;;;1.65;;
63945;SDS011;50122;56.330;43.838;2022-09-09T23:37:05;2.63;;;1.67;;
63945;SDS011;50122;56.330;43.838;2022-09-09T23:39:36;5.10;;;1.70;;
63945;SDS011;50122;56.330;43.838;2022-09-09T23:42:06;2.92;;;1.63;;
63945;SDS011;50122;56.330;43.838;2022-09-09T23:44:34;2.95;;;1.70;;
63945;SDS011;50122;56.330;43.838;2022-09-09T23:47:04;2.63;;;1.63;;
63945;SDS011;50122;56.330;43.838;2022-09-09T23:49:33;3.70;;;1.60;;
63945;SDS011;50122;56.330;43.838;2022-09-09T23:52:04;2.80;;;1.60;;
63945;SDS011;50122;56.330;43.838;2022-09-09T23:54:33;3.28;;;1.85;;
63945;SDS011;50122;56.330;43.838;2022-09-09T23:57:01;3.25;;;1.80;;
63945;SDS011;50122;56.330;43.838;2022-09-09T23:59:29;2.70;;;1.58;;
